Time;durP1;ratioP1;P1;durP2;ratioP2;P2;SDS_P1;SDS_P2;PMS_P1;PMS_P2;Temp;Humidity;BMP_temperature;BMP_pressure;BME280_temperature;BME280_humidity;BME280_pressure;Samples;Min_cycle;Max_cycle;Signal;HPM_P1;HPM_P2
2021/06/13 00:00:25;;;;;;;20.17;18.87;;;19.10;99.90;;;;;;4953804;29;20457;-67
2021/06/13 00:02:51;;;;;;;17.97;16.97;;;19.00;99.90;;;;;;4954115;29;20453;-68
2021/06/13 00:05:20;;;;;;;17.57;16.27;;;19.00;99.90;;;;;;4953714;29;20499;-68
2021/06/13 00:07:46;;;;;;;17.33;16.13;;;19.00;99.90;;;;;;4953715;29;20457;-69
2021/06/13 00:10:15;;;;;;;18.83;17.23;;;19.00;99.90;;;;;;4953322;29;20456;-69
2021/06/13 00:12:41;;;;;;;17.40;16.30;;;19.10;99.90;;;;;;4953439;29;20457;-69
2021/06/13 00:15:10;;;;;;;17.40;16.30;;;19.10;99.90;;;;;;4953600;29;20516;-69
2021/06/13 00:17:37;;;;;;;17.30;16.20;;;19.20;99.90;;;;;;4953587;29;20480;-69
2021/06/13 00:20:08;;;;;;;17.80;16.40;;;19.30;99.90;;;;;;4953461;29;20457;-69
2021/06/13 00:22:35;;;;;;;18.23;16.90;;;19.30;99.90;;;;;;4953487;29;20452;-69
2021/06/13 00:25:02;;;;;;;18.67;17.47;;;19.20;99.90;;;;;;4953417;29;20484;-70
2021/06/13 00:27:28;;;;;;;17.63;16.50;;;19.20;99.90;;;;;;4953135;29;20448;-69
2021/06/13 00:29:54;;;;;;;18.20;17.10;;;19.20;99.90;;;;;;4953573;29;20456;-69
2021/06/13 00:32:20;;;;;;;18.23;17.03;;;19.20;99.90;;;;;;4953360;29;20481;-69
2021/06/13 00:34:46;;;;;;;17.87;16.73;;;19.20;99.90;;;;;;4953334;29;20511;-69
2021/06/13 00:37:12;;;;;;;17.73;16.60;;;19.20;99.90;;;;;;4952922;29;20559;-69
2021/06/13 00:39:40;;;;;;;17.53;16.37;;;19.30;99.90;;;;;;4953004;29;20464;-69
2021/06/13 00:42:07;;;;;;;16.40;15.40;;;19.40;99.90;;;;;;4953077;29;20473;-69
2021/06/13 00:44:33;;;;;;;17.50;16.40;;;19.40;99.90;;;;;;4952869;29;20497;-69
2021/06/13 00:46:59;;;;;;;17.53;16.33;;;19.40;99.90;;;;;;4952959;29;20519;-69
2021/06/13 00:49:25;;;;;;;16.67;15.77;;;19.40;99.90;;;;;;4952855;29;20975;-69
2021/06/13 00:51:52;;;;;;;17.50;16.30;;;19.50;99.90;;;;;;4953127;29;20507;-68
2021/06/13 00:54:18;;;;;;;17.97;16.73;;;19.60;99.90;;;;;;4952989;29;20491;-69
2021/06/13 00:56:46;;;;;;;18.13;16.77;;;19.50;99.90;;;;;;4952991;29;20453;-69
2021/06/13 00:59:12;;;;;;;16.90;15.87;;;19.60;99.90;;;;;;4952622;28;20647;-69
2021/06/13 01:01:38;;;;;;;15.53;14.83;;;19.60;99.90;;;;;;4952845;29;20460;-69
2021/06/13 01:04:07;;;;;;;16.87;15.63;;;19.70;99.90;;;;;;4952735;29;20511;-69
2021/06/13 01:06:43;;;;;;;16.87;15.70;;;19.70;99.90;;;;;;4952821;29;20457;-69
2021/06/13 01:09:11;;;;;;;16.87;15.53;;;19.70;99.90;;;;;;4952725;29;20452;-69
2021/06/13 01:11:43;;;;;;;16.43;15.23;;;19.70;99.90;;;;;;4952694;29;20457;-69
2021/06/13 01:14:17;;;;;;;16.73;15.67;;;19.60;99.90;;;;;;4952544;29;20445;-69
2021/06/13 01:16:53;;;;;;;15.90;15.10;;;19.50;99.90;;;;;;4952700;29;20966;-69
2021/06/13 01:19:41;;;;;;;16.83;15.63;;;19.50;99.90;;;;;;4952802;29;20804;-69
2021/06/13 01:22:21;;;;;;;16.73;15.70;;;19.50;99.90;;;;;;4952766;29;20457;-69
2021/06/13 01:25:03;;;;;;;16.80;15.80;;;19.40;99.90;;;;;;4952518;29;20488;-68
2021/06/13 01:27:44;;;;;;;15.60;14.70;;;19.40;99.90;;;;;;4952572;29;20456;-69
2021/06/13 01:30:12;;;;;;;16.87;15.20;;;19.30;99.90;;;;;;4952531;29;20849;-69
2021/06/13 01:32:38;;;;;;;15.70;14.80;;;19.30;99.90;;;;;;4952589;29;20461;-71
2021/06/13 01:35:08;;;;;;;17.27;16.17;;;19.30;99.90;;;;;;4952489;29;20448;-69
2021/06/13 08:42:00;;;;;;;13.50;12.90;;;28.60;68.20;;;;;;5482146;23;20491;-67
2021/06/13 08:44:27;;;;;;;14.47;13.53;;;28.40;68.20;;;;;;4953005;29;20524;-70
2021/06/13 08:46:55;;;;;;;13.13;12.53;;;28.70;68.10;;;;;;4945029;28;20876;-70
2021/06/13 08:49:23;;;;;;;13.60;13.00;;;28.90;66.80;;;;;;4939288;29;20457;-69
2021/06/13 08:51:50;;;;;;;14.43;13.43;;;29.30;67.50;;;;;;4933759;29;20469;-69
2021/06/13 08:54:16;;;;;;;13.40;12.70;;;29.70;66.50;;;;;;4933956;29;20782;-70
2021/06/13 08:56:43;;;;;;;14.37;13.37;;;29.60;64.00;;;;;;4933383;29;20814;-69
2021/06/13 08:59:13;;;;;;;13.73;12.93;;;28.90;66.00;;;;;;4933872;29;20860;-70
2021/06/13 09:01:40;;;;;;;13.70;12.90;;;29.00;66.30;;;;;;4933813;29;20461;-71
2021/06/13 09:04:07;;;;;;;14.17;13.37;;;28.80;67.20;;;;;;4933684;29;20461;-70
2021/06/13 09:06:34;;;;;;;12.90;11.97;;;28.00;67.40;;;;;;4933376;29;20493;-69
2021/06/13 09:09:01;;;;;;;13.47;12.90;;;27.90;69.50;;;;;;4933165;29;20684;-69
2021/06/13 09:11:30;;;;;;;13.57;12.77;;;28.30;68.80;;;;;;4933375;29;20956;-70
2021/06/13 09:14:12;;;;;;;14.17;13.27;;;28.10;67.10;;;;;;4933548;29;20460;-67
2021/06/13 09:16:42;;;;;;;14.37;13.67;;;28.20;67.50;;;;;;4933597;29;20441;-68
2021/06/13 09:19:08;;;;;;;14.50;13.60;;;27.60;68.80;;;;;;4933150;29;21065;-67
2021/06/13 09:21:37;;;;;;;13.53;12.60;;;27.30;70.20;;;;;;4933408;29;20477;-68
2021/06/13 09:24:20;;;;;;;13.23;12.33;;;27.40;70.70;;;;;;4933180;29;20462;-69
2021/06/13 09:26:47;;;;;;;14.27;13.57;;;27.90;68.10;;;;;;4933330;29;20457;-68
2021/06/13 09:29:15;;;;;;;14.70;13.80;;;28.60;66.00;;;;;;4933312;29;20461;-70
2021/06/13 09:31:42;;;;;;;13.60;12.90;;;29.00;65.00;;;;;;4933011;29;20461;-70
2021/06/13 09:34:15;;;;;;;14.07;13.30;;;29.00;65.10;;;;;;4933573;29;20458;-71
2021/06/13 09:36:42;;;;;;;13.50;12.70;;;29.60;62.20;;;;;;4933608;29;20831;-71
2021/06/13 09:39:11;;;;;;;13.17;12.63;;;28.90;63.40;;;;;;4933502;29;20812;-69
2021/06/13 09:41:40;;;;;;;13.47;12.77;;;29.70;62.80;;;;;;4950553;29;20562;-69
2021/06/13 09:44:08;;;;;;;14.50;13.50;;;30.20;61.10;;;;;;4952510;29;20456;-69
2021/06/13 09:46:39;;;;;;;14.43;13.70;;;30.00;62.10;;;;;;4944920;29;20496;-69
2021/06/13 09:49:09;;;;;;;14.80;14.00;;;30.20;61.70;;;;;;4952741;29;20452;-69
2021/06/13 09:51:39;;;;;;;12.87;12.27;;;30.10;60.60;;;;;;4952606;29;20464;-69
2021/06/13 09:54:07;;;;;;;14.20;13.43;;;29.60;60.50;;;;;;4952226;29;20865;-69
2021/06/13 09:56:34;;;;;;;13.90;13.03;;;29.70;61.50;;;;;;4952417;29;20850;-69
2021/06/13 09:59:04;;;;;;;14.17;13.20;;;30.70;59.70;;;;;;4952279;29;20824;-70
2021/06/13 10:01:36;;;;;;;14.03;13.33;;;30.40;59.70;;;;;;4951568;29;20814;-69
2021/06/13 10:04:06;;;;;;;14.10;13.50;;;30.30;60.10;;;;;;4951962;29;20887;-70
2021/06/13 10:06:34;;;;;;;13.60;12.90;;;31.60;57.00;;;;;;4951893;29;20499;-70
2021/06/13 10:09:01;;;;;;;13.80;13.00;;;31.50;56.30;;;;;;4952025;29;20512;-69
2021/06/13 10:11:28;;;;;;;13.23;12.43;;;31.40;56.40;;;;;;4951650;29;20456;-69
2021/06/13 10:13:59;;;;;;;14.10;13.30;;;31.00;57.60;;;;;;4951889;29;20468;-69
2021/06/13 10:16:38;;;;;;;12.70;12.00;;;30.80;55.90;;;;;;4951784;29;20853;-69
2021/06/13 10:19:10;;;;;;;12.63;12.13;;;30.50;56.80;;;;;;4951800;29;20463;-69
2021/06/13 10:21:39;;;;;;;13.13;12.60;;;30.70;55.00;;;;;;4952181;29;20865;-69
2021/06/13 10:24:08;;;;;;;12.97;12.27;;;31.00;54.00;;;;;;4951679;29;20969;-69
2021/06/13 10:26:37;;;;;;;13.57;12.97;;;31.00;54.80;;;;;;4951452;29;20897;-69
2021/06/13 10:29:05;;;;;;;14.07;13.47;;;31.70;52.70;;;;;;4951925;29;20455;-69
2021/06/13 10:31:32;;;;;;;14.43;13.63;;;32.00;52.10;;;;;;4952352;28;20455;-69
2021/06/13 10:33:59;;;;;;;14.63;13.83;;;31.80;53.40;;;;;;4955219;29;21299;-69
2021/06/13 10:36:27;;;;;;;14.90;13.90;;;31.50;54.40;;;;;;4954804;29;20821;-69
2021/06/13 10:38:54;;;;;;;13.60;12.90;;;31.50;54.10;;;;;;4955048;29;20460;-69
2021/06/13 10:41:21;;;;;;;15.03;14.23;;;31.20;54.80;;;;;;4954534;29;20495;-69
2021/06/13 10:43:47;;;;;;;13.77;12.97;;;29.40;56.30;;;;;;4955038;29;21241;-69
2021/06/13 10:46:17;;;;;;;13.93;13.20;;;29.50;57.70;;;;;;4954541;29;20497;-70
2021/06/13 10:48:50;;;;;;;13.83;13.20;;;29.90;57.30;;;;;;4954927;29;20453;-70
2021/06/13 10:51:30;;;;;;;13.83;13.03;;;30.50;55.60;;;;;;4954686;29;20459;-72
2021/06/13 10:54:27;;;;;;;14.43;13.53;;;30.90;54.80;;;;;;4954947;29;20444;-72
2021/06/13 10:56:56;;;;;;;12.67;12.17;;;29.50;56.80;;;;;;4952095;29;20794;-72
2021/06/13 10:59:23;;;;;;;13.23;12.67;;;29.40;58.00;;;;;;4954782;29;20448;-72
2021/06/13 11:02:08;;;;;;;13.93;13.23;;;29.80;57.30;;;;;;4954720;29;20449;-72
2021/06/13 11:04:48;;;;;;;13.20;12.63;;;29.60;57.00;;;;;;4954802;29;20460;-72
2021/06/13 11:07:57;;;;;;;12.80;12.30;;;30.30;55.80;;;;;;4954630;29;20532;-71
2021/06/13 11:10:31;;;;;;;13.50;12.90;;;30.70;53.40;;;;;;4954424;29;20516;-71
2021/06/13 11:13:04;;;;;;;13.37;12.63;;;30.40;53.50;;;;;;4954400;29;20457;-72
2021/06/13 11:16:00;;;;;;;12.83;12.23;;;30.40;53.60;;;;;;4954528;29;20457;-72
2021/06/13 11:18:31;;;;;;;13.40;12.90;;;30.40;55.20;;;;;;4954178;29;20947;-71
2021/06/13 11:21:05;;;;;;;13.00;12.50;;;30.40;54.10;;;;;;4954327;29;20484;-72
2021/06/13 11:23:47;;;;;;;13.73;12.80;;;30.70;52.00;;;;;;4953900;29;20550;-72
2021/06/13 11:26:39;;;;;;;13.77;13.07;;;30.90;52.10;;;;;;4953776;29;20496;-72
2021/06/13 11:29:11;;;;;;;13.83;13.07;;;31.10;52.70;;;;;;4953993;29;20464;-72
2021/06/13 11:31:51;;;;;;;13.07;12.50;;;30.50;53.20;;;;;;4954152;29;20966;-72
2021/06/13 11:34:18;;;;;;;13.80;12.97;;;30.20;51.50;;;;;;4953961;29;20540;-72
2021/06/13 11:36:46;;;;;;;13.77;13.07;;;30.60;52.50;;;;;;4954034;29;20449;-71
2021/06/13 11:39:25;;;;;;;13.23;12.43;;;31.20;52.70;;;;;;4953660;29;20955;-72
2021/06/13 11:42:06;;;;;;;14.30;13.70;;;31.00;53.40;;;;;;4953839;29;20488;-73
2021/06/13 11:44:44;;;;;;;13.23;12.53;;;30.90;53.50;;;;;;4953810;29;20515;-72
2021/06/13 11:47:32;;;;;;;13.30;12.70;;;30.90;52.50;;;;;;4953845;29;20498;-72
2021/06/13 11:50:01;;;;;;;12.93;12.40;;;30.40;53.60;;;;;;4953747;29;20478;-73
2021/06/13 11:53:03;;;;;;;13.53;12.83;;;30.50;53.60;;;;;;4953407;29;20551;-72
2021/06/13 11:55:55;;;;;;;13.37;12.87;;;30.20;53.70;;;;;;4953728;29;20440;-72
2021/06/13 11:58:23;;;;;;;12.90;12.30;;;29.20;53.00;;;;;;4953752;29;20859;-72
2021/06/13 12:00:58;;;;;;;13.43;12.83;;;29.90;54.20;;;;;;4953561;29;20951;-72
2021/06/13 12:03:25;;;;;;;13.27;12.70;;;30.90;53.00;;;;;;4953300;29;20447;-72
2021/06/13 12:06:06;;;;;;;13.03;12.43;;;31.40;51.00;;;;;;4953538;29;20495;-71
2021/06/13 12:08:40;;;;;;;13.40;12.57;;;30.50;52.20;;;;;;4953675;29;20538;-72
2021/06/13 12:11:26;;;;;;;12.93;12.23;;;30.20;52.80;;;;;;4953615;29;20449;-68
2021/06/13 12:13:53;;;;;;;12.87;12.30;;;30.60;53.10;;;;;;4953886;29;20475;-72
2021/06/13 12:16:20;;;;;;;13.73;12.90;;;31.20;50.60;;;;;;4953648;29;20471;-72
2021/06/13 12:18:59;;;;;;;12.47;11.93;;;31.20;51.20;;;;;;4953720;29;20455;-71
2021/06/13 12:21:28;;;;;;;12.77;11.90;;;31.30;49.90;;;;;;4953804;29;20511;-72
2021/06/13 12:24:01;;;;;;;12.50;11.90;;;31.10;50.00;;;;;;4961911;28;20519;-72
2021/06/13 12:29:24;;;;;;;13.30;12.70;;;31.20;50.80;;;;;;4972571;28;20523;-72
2021/06/13 12:31:51;;;;;;;11.80;11.40;;;30.80;52.00;;;;;;4972518;28;20937;-71
2021/06/13 12:34:19;;;;;;;13.10;12.50;;;30.80;51.90;;;;;;4992313;28;20458;-71
2021/06/13 12:36:50;;;;;;;12.97;12.17;;;31.10;52.40;;;;;;4992196;28;20447;-71
2021/06/13 12:39:31;;;;;;;13.03;12.43;;;30.80;51.20;;;;;;4992324;28;20816;-72
2021/06/13 12:42:10;;;;;;;13.87;13.37;;;31.60;50.50;;;;;;4973314;28;20471;-71
2021/06/13 12:44:37;;;;;;;12.40;12.00;;;31.70;49.30;;;;;;4972799;28;20459;-71
2021/06/13 12:47:05;;;;;;;12.80;12.13;;;31.00;48.30;;;;;;4972628;28;20496;-72
2021/06/13 12:49:40;;;;;;;12.13;11.63;;;30.70;47.70;;;;;;4972600;28;20464;-71
2021/06/13 12:52:12;;;;;;;13.47;12.77;;;30.00;47.30;;;;;;4972663;28;20467;-71
2021/06/13 12:54:38;;;;;;;11.93;11.33;;;28.60;51.00;;;;;;4964511;28;20463;-72
2021/06/13 12:57:06;;;;;;;12.40;11.70;;;29.10;50.40;;;;;;4975022;28;20464;-71
2021/06/13 12:59:37;;;;;;;12.23;11.53;;;29.40;51.70;;;;;;4992213;28;20455;-71
2021/06/13 13:02:07;;;;;;;13.27;12.67;;;29.40;51.80;;;;;;4992095;28;20513;-72
2021/06/13 13:04:44;;;;;;;12.73;12.23;;;29.50;51.70;;;;;;4992319;28;20462;-70
2021/06/13 13:07:11;;;;;;;12.73;12.30;;;29.60;52.20;;;;;;4991608;28;20493;-69
2021/06/13 13:10:07;;;;;;;12.80;12.20;;;30.30;51.50;;;;;;4992026;28;20462;-69
2021/06/13 13:12:34;;;;;;;12.00;11.40;;;30.10;51.60;;;;;;4991913;28;20459;-70
2021/06/13 13:15:16;;;;;;;12.43;11.73;;;29.90;49.30;;;;;;4991469;28;20466;-70
2021/06/13 13:17:44;;;;;;;11.57;11.07;;;30.20;49.40;;;;;;4991892;28;20447;-69
2021/06/13 13:20:31;;;;;;;12.00;11.50;;;30.60;45.90;;;;;;4992184;28;20506;-70
2021/06/13 13:23:05;;;;;;;12.97;12.07;;;31.30;46.00;;;;;;4991777;28;20473;-70
2021/06/13 13:25:35;;;;;;;12.77;12.23;;;30.50;47.60;;;;;;4981394;28;20482;-70
2021/06/13 13:28:24;;;;;;;12.13;11.43;;;29.90;49.80;;;;;;4978465;28;20503;-70
2021/06/13 13:30:52;;;;;;;12.80;12.20;;;30.00;49.80;;;;;;4976476;28;20455;-70
2021/06/13 13:33:30;;;;;;;12.77;12.07;;;29.90;49.50;;;;;;4973034;28;20962;-70
2021/06/13 13:35:57;;;;;;;13.23;12.43;;;29.40;49.40;;;;;;4971989;28;20474;-71
2021/06/13 13:38:37;;;;;;;12.87;12.27;;;29.10;49.40;;;;;;4972029;28;20451;-71
2021/06/13 13:41:07;;;;;;;12.47;12.07;;;29.20;48.20;;;;;;4971708;28;20503;-71
2021/06/13 13:43:36;;;;;;;12.30;11.80;;;29.30;47.40;;;;;;4972124;28;20462;-71
2021/06/13 13:46:03;;;;;;;12.43;11.83;;;29.30;47.80;;;;;;4972063;28;20494;-71
2021/06/13 13:48:30;;;;;;;12.50;11.93;;;30.00;47.20;;;;;;4971989;28;20456;-71
2021/06/13 13:51:03;;;;;;;13.20;12.50;;;30.10;46.10;;;;;;4971803;28;20942;-71
2021/06/13 13:53:46;;;;;;;12.30;11.70;;;30.20;45.60;;;;;;4971753;28;20464;-71
2021/06/13 13:56:20;;;;;;;12.10;11.70;;;29.70;47.60;;;;;;4971617;28;20452;-71
2021/06/13 13:58:47;;;;;;;13.67;13.07;;;29.40;48.00;;;;;;4980982;28;20473;-71
2021/06/13 14:01:15;;;;;;;12.30;11.80;;;29.60;48.10;;;;;;4991055;28;20494;-71
2021/06/13 14:03:43;;;;;;;12.70;12.20;;;30.50;46.60;;;;;;4991615;28;20497;-71
2021/06/13 14:06:14;;;;;;;11.80;11.40;;;30.00;44.20;;;;;;4991329;28;20983;-71
2021/06/13 14:08:42;;;;;;;11.77;11.37;;;29.40;45.50;;;;;;4995153;28;20458;-71
2021/06/13 14:11:10;;;;;;;12.23;11.73;;;29.10;45.20;;;;;;4995151;28;20470;-71
2021/06/13 14:13:38;;;;;;;12.10;11.70;;;28.90;46.70;;;;;;4994557;28;20477;-71
2021/06/13 14:16:05;;;;;;;11.67;11.23;;;28.60;47.50;;;;;;4994935;28;20459;-71
2021/06/13 14:18:32;;;;;;;12.53;11.83;;;28.60;46.80;;;;;;4994923;28;20880;-71
2021/06/13 14:20:59;;;;;;;11.77;11.37;;;28.30;48.10;;;;;;4994817;28;20454;-71
2021/06/13 14:23:26;;;;;;;12.37;11.77;;;28.10;48.40;;;;;;4994590;28;20870;-71
2021/06/13 14:25:55;;;;;;;11.87;11.47;;;28.20;49.00;;;;;;4984718;28;20864;-71
2021/06/13 14:28:22;;;;;;;11.77;11.17;;;28.50;48.30;;;;;;4975251;28;20473;-71
2021/06/13 14:30:50;;;;;;;11.20;10.80;;;28.20;47.70;;;;;;4975147;28;20448;-71
2021/06/13 14:33:17;;;;;;;10.80;10.50;;;28.50;47.70;;;;;;4975155;28;20702;-71
2021/06/13 14:35:44;;;;;;;11.60;11.20;;;28.40;47.60;;;;;;4974851;28;20840;-71
2021/06/13 14:38:11;;;;;;;11.47;11.07;;;28.60;47.00;;;;;;4975232;28;20491;-71
2021/06/13 14:40:38;;;;;;;12.30;11.80;;;28.70;47.20;;;;;;4975209;28;20471;-72
2021/06/13 14:43:05;;;;;;;12.33;11.80;;;28.70;46.40;;;;;;4974736;28;20822;-72
2021/06/13 14:45:32;;;;;;;11.47;10.97;;;28.60;46.70;;;;;;4974825;28;20823;-72
2021/06/13 14:48:00;;;;;;;11.57;11.07;;;28.90;46.50;;;;;;4974877;28;20487;-71
2021/06/13 14:50:27;;;;;;;11.63;11.17;;;28.60;45.80;;;;;;4974647;28;20456;-72
2021/06/13 14:52:53;;;;;;;11.00;10.60;;;28.40;45.40;;;;;;4974820;28;20964;-72
2021/06/13 14:55:21;;;;;;;11.40;11.00;;;28.10;47.10;;;;;;4974788;28;20868;-72
2021/06/13 14:57:48;;;;;;;10.70;10.40;;;27.80;47.90;;;;;;4974756;28;20460;-72
2021/06/13 15:00:16;;;;;;;11.13;10.60;;;27.50;48.30;;;;;;4974366;28;20459;-71
2021/06/13 15:02:42;;;;;;;11.50;11.00;;;27.60;49.10;;;;;;4974354;28;20965;-72
2021/06/13 15:05:12;;;;;;;11.90;11.40;;;27.30;48.00;;;;;;4974730;28;20447;-72
2021/06/13 15:07:38;;;;;;;11.20;10.80;;;26.80;46.90;;;;;;4974561;28;20495;-71
2021/06/13 15:10:07;;;;;;;11.50;11.07;;;26.50;47.80;;;;;;4974211;28;20448;-72
2021/06/13 15:12:34;;;;;;;11.80;11.20;;;26.50;48.70;;;;;;4974440;28;20451;-72
2021/06/13 15:15:02;;;;;;;11.97;11.30;;;26.40;47.70;;;;;;4974369;28;20545;-72
2021/06/13 15:17:29;;;;;;;10.77;10.37;;;26.10;48.00;;;;;;4973808;28;20440;-72
2021/06/13 15:19:55;;;;;;;11.13;10.63;;;25.60;47.90;;;;;;4974530;28;20836;-71
2021/06/13 15:22:24;;;;;;;11.50;10.83;;;25.30;48.70;;;;;;4974170;28;20452;-71
2021/06/13 15:24:51;;;;;;;11.77;11.17;;;25.10;49.70;;;;;;4974109;28;20451;-72
2021/06/13 15:27:18;;;;;;;11.83;11.33;;;25.10;50.10;;;;;;4974251;28;20479;-72
2021/06/13 15:29:45;;;;;;;11.30;10.90;;;25.00;50.90;;;;;;4974158;28;20448;-72
2021/06/13 15:32:13;;;;;;;11.33;10.93;;;24.90;51.30;;;;;;4973765;28;20861;-72
2021/06/13 15:34:40;;;;;;;11.50;10.80;;;24.80;52.10;;;;;;4974071;28;20455;-72
2021/06/13 15:37:09;;;;;;;11.37;10.63;;;24.90;53.20;;;;;;4974084;28;20452;-71
2021/06/13 15:39:37;;;;;;;12.20;11.70;;;24.70;53.00;;;;;;4973751;28;20946;-71
2021/06/13 15:42:06;;;;;;;10.83;10.20;;;24.50;52.30;;;;;;4973704;28;20542;-71
2021/06/13 15:44:33;;;;;;;12.17;11.57;;;24.50;52.80;;;;;;4973650;28;20448;-71
2021/06/13 15:47:01;;;;;;;10.90;10.40;;;24.50;51.90;;;;;;4973794;28;20483;-72
2021/06/13 15:49:28;;;;;;;10.80;10.40;;;24.60;50.60;;;;;;4974001;28;20448;-72
2021/06/13 15:51:55;;;;;;;10.60;10.20;;;24.70;52.00;;;;;;4973821;28;20454;-72
2021/06/13 15:54:26;;;;;;;11.53;11.07;;;24.70;52.60;;;;;;4973820;28;20460;-72
2021/06/13 15:56:54;;;;;;;10.80;10.30;;;24.70;51.70;;;;;;4974053;28;20542;-71
2021/06/13 15:59:27;;;;;;;10.60;10.20;;;24.80;50.10;;;;;;4973897;28;20820;-71
2021/06/13 16:01:54;;;;;;;10.50;10.00;;;24.80;50.90;;;;;;4973745;28;20487;-71
2021/06/13 16:04:21;;;;;;;11.40;11.00;;;24.80;51.60;;;;;;4973567;28;20451;-71
2021/06/13 16:06:49;;;;;;;11.60;11.00;;;24.80;52.00;;;;;;4973269;28;20981;-71
2021/06/13 16:09:16;;;;;;;11.00;10.30;;;24.80;51.00;;;;;;4973209;28;20571;-71
2021/06/13 16:11:45;;;;;;;11.00;10.57;;;24.70;51.10;;;;;;4973238;28;20494;-70
2021/06/13 16:14:13;;;;;;;10.90;10.50;;;24.70;51.90;;;;;;4973249;28;20447;-71
2021/06/13 16:16:40;;;;;;;11.77;11.10;;;24.60;51.80;;;;;;4973136;28;20514;-71
2021/06/13 16:19:07;;;;;;;11.00;10.60;;;24.50;52.60;;;;;;4972845;28;20835;-70
2021/06/13 16:21:34;;;;;;;11.20;10.60;;;24.50;53.00;;;;;;4973021;28;20456;-72
2021/06/13 16:24:00;;;;;;;11.90;11.17;;;24.40;52.00;;;;;;4972920;28;20829;-72
2021/06/13 16:26:28;;;;;;;11.97;11.03;;;24.40;51.40;;;;;;4972831;28;20456;-73
2021/06/13 16:28:54;;;;;;;10.70;10.20;;;24.30;51.80;;;;;;4972291;28;20496;-71
2021/06/13 16:31:22;;;;;;;11.87;11.37;;;24.30;51.40;;;;;;4972549;28;20452;-70
2021/06/13 16:33:52;;;;;;;11.90;11.30;;;24.30;53.40;;;;;;4972914;28;20456;-71
2021/06/13 16:36:21;;;;;;;11.40;11.00;;;24.30;54.50;;;;;;4972450;28;20459;-70
2021/06/13 16:38:48;;;;;;;12.30;11.80;;;24.30;54.10;;;;;;4956062;28;20447;-72
2021/06/13 16:41:15;;;;;;;11.33;10.83;;;24.40;52.90;;;;;;4952823;29;20492;-71
2021/06/13 16:43:42;;;;;;;11.57;11.07;;;24.40;52.70;;;;;;4953250;28;20453;-71
2021/06/13 16:46:08;;;;;;;11.20;10.80;;;24.30;52.70;;;;;;4953646;29;20453;-70
2021/06/13 16:48:37;;;;;;;12.07;11.33;;;24.20;52.90;;;;;;4984807;28;20494;-71
2021/06/13 16:51:04;;;;;;;11.20;10.80;;;24.30;54.00;;;;;;4991727;28;20458;-72
2021/06/13 16:53:30;;;;;;;11.30;10.90;;;24.20;54.20;;;;;;4991228;28;20930;-72
2021/06/13 16:55:57;;;;;;;10.47;10.07;;;24.20;55.10;;;;;;4991569;28;20457;-72
2021/06/13 16:58:24;;;;;;;11.17;10.50;;;24.30;54.90;;;;;;4991112;28;20474;-72
2021/06/13 17:00:50;;;;;;;10.60;10.10;;;24.30;54.60;;;;;;4990612;28;20455;-72
2021/06/13 17:03:17;;;;;;;10.67;10.27;;;24.30;55.00;;;;;;4990928;28;20874;-72
2021/06/13 17:05:45;;;;;;;11.33;10.63;;;24.20;55.10;;;;;;4990559;28;20459;-72
2021/06/13 17:08:14;;;;;;;10.43;10.03;;;24.20;55.60;;;;;;4990591;28;21087;-72
2021/06/13 17:10:40;;;;;;;11.13;10.50;;;24.20;55.20;;;;;;4991151;28;20458;-72
2021/06/13 17:13:07;;;;;;;10.97;10.57;;;24.10;55.40;;;;;;4990724;28;20459;-71
2021/06/13 17:15:34;;;;;;;10.10;9.70;;;24.10;55.70;;;;;;4990541;28;20550;-72
2021/06/13 17:18:01;;;;;;;11.07;10.37;;;24.10;55.60;;;;;;4990898;28;20490;-71
2021/06/13 17:20:30;;;;;;;9.63;9.23;;;24.10;55.70;;;;;;4990493;28;20454;-71
2021/06/13 17:23:03;;;;;;;9.70;9.30;;;24.10;56.20;;;;;;4990741;28;20455;-72
2021/06/13 17:25:33;;;;;;;10.70;10.27;;;24.00;56.10;;;;;;4990231;28;20687;-71
2021/06/13 17:28:02;;;;;;;10.03;9.63;;;24.00;55.30;;;;;;4990478;28;20524;-71
2021/06/13 17:30:29;;;;;;;9.87;9.47;;;23.90;54.90;;;;;;4990293;28;20972;-71
2021/06/13 17:32:56;;;;;;;11.47;10.87;;;23.80;54.60;;;;;;4990533;28;20457;-71
2021/06/13 17:35:25;;;;;;;9.50;9.20;;;23.80;55.00;;;;;;4990513;28;20454;-71
2021/06/13 17:37:52;;;;;;;10.63;10.13;;;23.70;55.60;;;;;;4990412;28;20470;-72
2021/06/13 17:40:21;;;;;;;11.00;10.50;;;23.60;56.20;;;;;;4990515;28;20462;-72
2021/06/13 17:42:49;;;;;;;12.10;11.20;;;23.60;56.10;;;;;;4994434;28;20988;-71
2021/06/13 17:45:16;;;;;;;10.13;9.73;;;23.60;55.80;;;;;;4994099;28;20454;-71
2021/06/13 17:47:44;;;;;;;10.53;10.03;;;23.60;55.90;;;;;;4994428;28;20500;-72
2021/06/13 17:50:11;;;;;;;10.10;9.60;;;23.60;55.90;;;;;;4994416;28;20455;-70
2021/06/13 17:52:39;;;;;;;10.27;9.87;;;23.60;56.20;;;;;;4994453;28;20462;-72
2021/06/13 17:55:06;;;;;;;10.73;10.27;;;23.60;55.90;;;;;;4994232;28;20517;-72
2021/06/13 17:57:34;;;;;;;10.47;9.97;;;23.60;56.70;;;;;;4993772;28;20451;-72
2021/06/13 18:00:01;;;;;;;10.47;9.90;;;23.60;55.80;;;;;;4994389;28;20455;-72
2021/06/13 18:02:28;;;;;;;10.43;10.03;;;23.50;55.90;;;;;;4993828;28;20458;-72
2021/06/13 18:04:55;;;;;;;10.30;9.80;;;23.50;56.20;;;;;;4994190;28;20508;-71
2021/06/13 18:07:22;;;;;;;10.87;10.30;;;23.40;56.00;;;;;;4993534;28;20785;-72
2021/06/13 18:09:48;;;;;;;10.20;9.70;;;23.40;56.80;;;;;;4993960;28;20446;-72
2021/06/13 18:12:15;;;;;;;10.63;10.13;;;23.30;57.00;;;;;;4993558;28;20941;-72
2021/06/13 18:14:43;;;;;;;10.43;9.97;;;23.40;57.40;;;;;;4993806;28;20451;-71
2021/06/13 18:17:10;;;;;;;10.50;10.10;;;23.40;57.30;;;;;;4993406;28;20616;-72
2021/06/13 18:19:39;;;;;;;10.53;10.03;;;23.30;57.20;;;;;;4993847;28;20463;-72
2021/06/13 18:22:06;;;;;;;11.40;10.80;;;23.30;57.20;;;;;;4993621;28;20820;-72
2021/06/13 18:24:33;;;;;;;10.83;10.33;;;23.30;57.70;;;;;;4993518;28;20653;-72
2021/06/13 18:27:00;;;;;;;10.73;10.13;;;23.20;57.90;;;;;;4993708;28;20486;-72
2021/06/13 18:29:26;;;;;;;11.40;10.70;;;23.20;57.70;;;;;;4993539;28;20871;-71
2021/06/13 18:31:54;;;;;;;10.30;9.90;;;23.20;58.10;;;;;;4993814;28;20458;-71
2021/06/13 18:34:21;;;;;;;10.20;9.70;;;23.10;57.90;;;;;;4993564;28;20829;-72
2021/06/13 18:36:48;;;;;;;10.17;9.77;;;23.10;58.30;;;;;;4993164;28;20451;-71
2021/06/13 18:39:15;;;;;;;10.10;9.70;;;23.00;58.20;;;;;;4993262;28;20461;-72
2021/06/13 18:41:42;;;;;;;10.00;9.60;;;22.80;58.50;;;;;;4993142;28;20516;-72
2021/06/13 18:44:09;;;;;;;9.70;9.30;;;22.90;58.90;;;;;;4993330;28;20450;-69
2021/06/13 18:46:36;;;;;;;10.63;10.10;;;22.80;59.20;;;;;;4993289;28;20454;-69
2021/06/13 18:49:05;;;;;;;10.00;9.50;;;22.80;59.10;;;;;;4993083;28;21008;-72
2021/06/13 18:51:32;;;;;;;10.20;9.77;;;22.70;59.30;;;;;;4993466;28;20458;-72
2021/06/13 18:53:59;;;;;;;10.80;10.20;;;22.70;59.60;;;;;;4994337;28;20454;-71
2021/06/13 18:56:27;;;;;;;10.20;9.70;;;22.70;59.70;;;;;;4997612;28;20450;-71
2021/06/13 18:58:54;;;;;;;10.83;10.20;;;22.70;60.30;;;;;;4997982;28;20554;-71
2021/06/13 19:01:22;;;;;;;10.20;9.70;;;22.60;60.50;;;;;;4994749;28;20454;-71
2021/06/13 19:03:49;;;;;;;11.20;10.70;;;22.60;60.90;;;;;;4993196;28;20462;-71
2021/06/13 19:06:18;;;;;;;10.57;9.77;;;22.50;61.10;;;;;;4992723;28;20451;-72
2021/06/13 19:08:45;;;;;;;10.03;9.53;;;22.40;60.80;;;;;;4993028;28;20496;-72
2021/06/13 19:11:12;;;;;;;11.63;10.93;;;22.40;62.20;;;;;;4993188;28;20454;-71
2021/06/13 19:13:40;;;;;;;11.37;10.77;;;22.30;62.20;;;;;;4993022;28;20999;-72
2021/06/13 19:16:16;;;;;;;10.50;10.00;;;22.20;62.70;;;;;;4992944;28;20999;-69
2021/06/13 19:18:43;;;;;;;10.53;10.13;;;22.10;65.50;;;;;;4989862;28;20477;-72
2021/06/13 19:21:11;;;;;;;11.10;10.40;;;21.90;66.60;;;;;;4974389;28;20444;-71
2021/06/13 19:23:39;;;;;;;10.80;10.30;;;21.80;66.70;;;;;;4972123;28;20944;-72
2021/06/13 19:26:07;;;;;;;10.97;10.37;;;21.80;67.00;;;;;;4970095;28;20455;-72
2021/06/13 19:28:35;;;;;;;10.53;9.93;;;21.60;69.50;;;;;;4972259;28;20807;-72
2021/06/13 19:31:02;;;;;;;10.80;9.90;;;21.50;71.10;;;;;;4972058;28;20538;-71
2021/06/13 19:33:29;;;;;;;10.10;9.70;;;21.40;70.50;;;;;;4972208;28;20532;-71
2021/06/13 19:35:56;;;;;;;9.30;8.80;;;21.20;70.00;;;;;;4972513;28;20470;-72
2021/06/13 19:38:24;;;;;;;10.30;9.90;;;21.20;66.20;;;;;;4972267;28;20440;-72
2021/06/13 19:40:53;;;;;;;9.30;8.90;;;21.20;66.10;;;;;;4971749;28;20474;-72
2021/06/13 19:43:20;;;;;;;8.80;8.50;;;21.20;64.30;;;;;;4971806;28;20483;-72
2021/06/13 19:45:48;;;;;;;9.30;9.00;;;21.10;64.20;;;;;;4971976;28;20828;-72
2021/06/13 19:48:15;;;;;;;10.13;9.53;;;21.10;63.50;;;;;;4972095;28;20542;-72